sensor_id;sensor_type;location;lat;lon;timestamp;P1;durP1;ratioP1;P2;durP2;ratioP2
22240;SDS011;11289;52.524;13.694;2023-12-07T00:01:09;27.23;;;15.52;;
22240;SDS011;11289;52.524;13.694;2023-12-07T00:03:35;24.10;;;15.43;;
22240;SDS011;11289;52.524;13.694;2023-12-07T00:06:01;28.08;;;15.32;;
22240;SDS011;11289;52.524;13.694;2023-12-07T00:08:27;24.85;;;15.15;;
22240;SDS011;11289;52.524;13.694;2023-12-07T00:10:53;23.00;;;15.45;;
22240;SDS011;11289;52.524;13.694;2023-12-07T00:13:19;29.98;;;15.32;;
22240;SDS011;11289;52.524;13.694;2023-12-07T00:15:45;26.25;;;17.05;;
22240;SDS011;11289;52.524;13.694;2023-12-07T00:18:11;27.05;;;17.02;;
22240;SDS011;11289;52.524;13.694;2023-12-07T00:20:37;26.60;;;15.88;;
22240;SDS011;11289;52.524;13.694;2023-12-07T00:23:03;25.55;;;15.40;;
22240;SDS011;11289;52.524;13.694;2023-12-07T00:25:28;24.00;;;15.10;;
22240;SDS011;11289;52.524;13.694;2023-12-07T00:27:54;25.75;;;15.60;;
22240;SDS011;11289;52.524;13.694;2023-12-07T00:30:20;24.33;;;15.23;;
22240;SDS011;11289;52.524;13.694;2023-12-07T00:32:46;25.58;;;16.10;;
22240;SDS011;11289;52.524;13.694;2023-12-07T00:35:12;27.17;;;15.75;;
22240;SDS011;11289;52.524;13.694;2023-12-07T00:37:40;26.58;;;15.80;;
22240;SDS011;11289;52.524;13.694;2023-12-07T00:40:06;22.48;;;14.32;;
22240;SDS011;11289;52.524;13.694;2023-12-07T00:42:33;22.98;;;14.48;;
22240;SDS011;11289;52.524;13.694;2023-12-07T00:45:00;26.88;;;15.32;;
22240;SDS011;11289;52.524;13.694;2023-12-07T00:47:26;22.05;;;14.10;;
22240;SDS011;11289;52.524;13.694;2023-12-07T00:49:52;23.38;;;15.30;;
22240;SDS011;11289;52.524;13.694;2023-12-07T00:52:18;23.92;;;15.13;;
22240;SDS011;11289;52.524;13.694;2023-12-07T00:54:44;25.30;;;15.60;;
22240;SDS011;11289;52.524;13.694;2023-12-07T00:57:10;25.67;;;15.18;;
22240;SDS011;11289;52.524;13.694;2023-12-07T00:59:36;27.50;;;16.25;;
22240;SDS011;11289;52.524;13.694;2023-12-07T01:02:05;21.35;;;14.18;;
22240;SDS011;11289;52.524;13.694;2023-12-07T01:04:32;22.75;;;14.02;;
22240;SDS011;11289;52.524;13.694;2023-12-07T01:06:58;23.20;;;13.82;;
22240;SDS011;11289;52.524;13.694;2023-12-07T01:09:25;22.17;;;14.25;;
22240;SDS011;11289;52.524;13.694;2023-12-07T01:11:51;25.33;;;15.10;;
22240;SDS011;11289;52.524;13.694;2023-12-07T01:14:18;21.90;;;14.48;;
22240;SDS011;11289;52.524;13.694;2023-12-07T01:16:44;24.83;;;15.52;;
22240;SDS011;11289;52.524;13.694;2023-12-07T01:19:10;22.20;;;14.63;;
22240;SDS011;11289;52.524;13.694;2023-12-07T01:21:42;22.88;;;14.45;;
22240;SDS011;11289;52.524;13.694;2023-12-07T01:24:09;23.38;;;15.73;;
22240;SDS011;11289;52.524;13.694;2023-12-07T01:26:35;23.15;;;15.80;;
22240;SDS011;11289;52.524;13.694;2023-12-07T01:29:01;25.83;;;16.08;;
22240;SDS011;11289;52.524;13.694;2023-12-07T01:31:28;25.38;;;15.60;;
22240;SDS011;11289;52.524;13.694;2023-12-07T01:33:54;23.92;;;14.25;;
22240;SDS011;11289;52.524;13.694;2023-12-07T01:36:20;23.65;;;15.05;;
22240;SDS011;11289;52.524;13.694;2023-12-07T01:38:46;23.38;;;15.43;;
22240;SDS011;11289;52.524;13.694;2023-12-07T01:41:12;25.27;;;14.93;;
22240;SDS011;11289;52.524;13.694;2023-12-07T01:43:44;25.42;;;15.63;;
22240;SDS011;11289;52.524;13.694;2023-12-07T01:46:11;25.63;;;15.65;;
22240;SDS011;11289;52.524;13.694;2023-12-07T01:48:38;22.00;;;14.48;;
22240;SDS011;11289;52.524;13.694;2023-12-07T01:51:04;22.27;;;14.52;;
22240;SDS011;11289;52.524;13.694;2023-12-07T01:53:32;23.55;;;14.20;;
22240;SDS011;11289;52.524;13.694;2023-12-07T01:55:58;21.83;;;14.20;;
22240;SDS011;11289;52.524;13.694;2023-12-07T01:58:24;24.70;;;14.35;;
22240;SDS011;11289;52.524;13.694;2023-12-07T02:00:51;25.02;;;15.63;;
22240;SDS011;11289;52.524;13.694;2023-12-07T02:03:17;23.77;;;13.52;;
22240;SDS011;11289;52.524;13.694;2023-12-07T02:05:45;24.90;;;14.18;;
22240;SDS011;11289;52.524;13.694;2023-12-07T02:08:13;21.48;;;13.35;;
22240;SDS011;11289;52.524;13.694;2023-12-07T02:10:39;25.10;;;14.90;;
22240;SDS011;11289;52.524;13.694;2023-12-07T02:13:05;21.48;;;13.85;;
22240;SDS011;11289;52.524;13.694;2023-12-07T02:15:32;24.55;;;15.43;;
22240;SDS011;11289;52.524;13.694;2023-12-07T02:18:19;20.30;;;13.10;;
22240;SDS011;11289;52.524;13.694;2023-12-07T02:20:47;24.88;;;15.32;;
22240;SDS011;11289;52.524;13.694;2023-12-07T02:23:19;24.40;;;14.88;;
22240;SDS011;11289;52.524;13.694;2023-12-07T02:25:51;25.27;;;16.08;;
22240;SDS011;11289;52.524;13.694;2023-12-07T02:28:17;22.20;;;15.07;;
22240;SDS011;11289;52.524;13.694;2023-12-07T02:30:44;23.20;;;15.55;;
22240;SDS011;11289;52.524;13.694;2023-12-07T02:33:10;23.05;;;14.38;;
22240;SDS011;11289;52.524;13.694;2023-12-07T02:35:37;24.05;;;15.45;;
22240;SDS011;11289;52.524;13.694;2023-12-07T02:38:03;24.90;;;15.60;;
22240;SDS011;11289;52.524;13.694;2023-12-07T02:40:31;24.40;;;15.10;;
22240;SDS011;11289;52.524;13.694;2023-12-07T02:42:58;22.38;;;14.85;;
22240;SDS011;11289;52.524;13.694;2023-12-07T02:45:25;25.33;;;15.43;;
22240;SDS011;11289;52.524;13.694;2023-12-07T02:47:52;23.85;;;15.82;;
22240;SDS011;11289;52.524;13.694;2023-12-07T02:50:19;23.75;;;14.60;;
22240;SDS011;11289;52.524;13.694;2023-12-07T02:52:46;25.02;;;14.80;;
22240;SDS011;11289;52.524;13.694;2023-12-07T02:55:11;26.33;;;17.13;;
22240;SDS011;11289;52.524;13.694;2023-12-07T02:57:37;24.85;;;14.90;;
22240;SDS011;11289;52.524;13.694;2023-12-07T03:00:04;22.38;;;14.95;;
22240;SDS011;11289;52.524;13.694;2023-12-07T03:02:34;23.83;;;15.82;;
22240;SDS011;11289;52.524;13.694;2023-12-07T03:05:00;24.75;;;15.52;;
22240;SDS011;11289;52.524;13.694;2023-12-07T03:07:26;24.27;;;14.50;;
22240;SDS011;11289;52.524;13.694;2023-12-07T03:09:52;24.60;;;15.40;;
22240;SDS011;11289;52.524;13.694;2023-12-07T03:12:18;22.63;;;14.27;;
22240;SDS011;11289;52.524;13.694;2023-12-07T03:14:44;24.58;;;15.55;;
22240;SDS011;11289;52.524;13.694;2023-12-07T03:17:10;24.17;;;15.88;;
22240;SDS011;11289;52.524;13.694;2023-12-07T03:19:39;22.90;;;15.30;;
22240;SDS011;11289;52.524;13.694;2023-12-07T03:22:06;27.13;;;16.45;;
22240;SDS011;11289;52.524;13.694;2023-12-07T03:24:34;26.52;;;16.05;;
22240;SDS011;11289;52.524;13.694;2023-12-07T03:27:00;23.50;;;15.27;;
22240;SDS011;11289;52.524;13.694;2023-12-07T03:29:26;20.55;;;14.45;;
22240;SDS011;11289;52.524;13.694;2023-12-07T03:31:52;25.35;;;15.85;;
22240;SDS011;11289;52.524;13.694;2023-12-07T03:34:18;23.55;;;14.85;;
22240;SDS011;11289;52.524;13.694;2023-12-07T03:36:47;23.17;;;14.90;;
22240;SDS011;11289;52.524;13.694;2023-12-07T03:39:14;24.58;;;15.35;;
22240;SDS011;11289;52.524;13.694;2023-12-07T03:41:41;25.60;;;16.00;;
22240;SDS011;11289;52.524;13.694;2023-12-07T03:44:07;24.77;;;15.57;;
22240;SDS011;11289;52.524;13.694;2023-12-07T03:46:33;24.55;;;15.25;;
22240;SDS011;11289;52.524;13.694;2023-12-07T03:48:59;27.55;;;16.15;;
22240;SDS011;11289;52.524;13.694;2023-12-07T03:51:28;25.65;;;15.70;;
22240;SDS011;11289;52.524;13.694;2023-12-07T03:53:54;24.13;;;15.57;;
22240;SDS011;11289;52.524;13.694;2023-12-07T03:56:27;25.20;;;16.38;;
22240;SDS011;11289;52.524;13.694;2023-12-07T03:58:55;20.90;;;13.52;;
22240;SDS011;11289;52.524;13.694;2023-12-07T04:01:22;23.33;;;15.70;;
22240;SDS011;11289;52.524;13.694;2023-12-07T04:03:53;27.02;;;16.20;;
22240;SDS011;11289;52.524;13.694;2023-12-07T04:06:20;20.25;;;14.40;;
22240;SDS011;11289;52.524;13.694;2023-12-07T04:08:47;24.85;;;16.00;;
22240;SDS011;11289;52.524;13.694;2023-12-07T04:11:13;22.80;;;15.82;;
22240;SDS011;11289;52.524;13.694;2023-12-07T04:13:40;24.35;;;15.80;;
22240;SDS011;11289;52.524;13.694;2023-12-07T04:16:07;26.65;;;15.40;;
22240;SDS011;11289;52.524;13.694;2023-12-07T04:18:33;25.90;;;15.93;;
22240;SDS011;11289;52.524;13.694;2023-12-07T04:20:59;25.60;;;15.55;;
22240;SDS011;11289;52.524;13.694;2023-12-07T04:23:25;23.63;;;15.32;;
22240;SDS011;11289;52.524;13.694;2023-12-07T04:25:51;23.55;;;15.82;;
22240;SDS011;11289;52.524;13.694;2023-12-07T04:28:17;25.25;;;15.43;;
22240;SDS011;11289;52.524;13.694;2023-12-07T04:30:43;24.55;;;15.73;;
22240;SDS011;11289;52.524;13.694;2023-12-07T04:33:09;23.58;;;15.55;;
22240;SDS011;11289;52.524;13.694;2023-12-07T04:35:35;24.63;;;15.02;;
22240;SDS011;11289;52.524;13.694;2023-12-07T04:38:01;25.50;;;15.00;;
22240;SDS011;11289;52.524;13.694;2023-12-07T04:40:27;23.95;;;15.45;;
22240;SDS011;11289;52.524;13.694;2023-12-07T04:42:53;23.48;;;14.35;;
22240;SDS011;11289;52.524;13.694;2023-12-07T04:45:19;25.42;;;14.95;;
22240;SDS011;11289;52.524;13.694;2023-12-07T04:47:45;25.25;;;15.73;;
22240;SDS011;11289;52.524;13.694;2023-12-07T04:50:12;25.48;;;16.08;;
22240;SDS011;11289;52.524;13.694;2023-12-07T04:52:38;24.95;;;15.95;;
22240;SDS011;11289;52.524;13.694;2023-12-07T04:55:05;24.77;;;15.65;;
22240;SDS011;11289;52.524;13.694;2023-12-07T04:57:34;25.83;;;15.15;;
22240;SDS011;11289;52.524;13.694;2023-12-07T05:00:01;21.23;;;15.13;;
22240;SDS011;11289;52.524;13.694;2023-12-07T05:02:35;23.80;;;16.20;;
22240;SDS011;11289;52.524;13.694;2023-12-07T05:05:01;24.65;;;14.20;;
22240;SDS011;11289;52.524;13.694;2023-12-07T05:07:27;25.00;;;14.77;;
22240;SDS011;11289;52.524;13.694;2023-12-07T05:09:53;22.00;;;15.02;;
22240;SDS011;11289;52.524;13.694;2023-12-07T05:12:19;24.65;;;15.35;;
22240;SDS011;11289;52.524;13.694;2023-12-07T05:14:45;25.85;;;16.23;;
22240;SDS011;11289;52.524;13.694;2023-12-07T05:17:11;25.65;;;16.50;;
22240;SDS011;11289;52.524;13.694;2023-12-07T05:19:37;23.20;;;15.15;;
22240;SDS011;11289;52.524;13.694;2023-12-07T05:22:03;22.40;;;14.95;;
22240;SDS011;11289;52.524;13.694;2023-12-07T05:24:29;24.05;;;15.52;;
22240;SDS011;11289;52.524;13.694;2023-12-07T05:26:57;26.33;;;17.10;;
22240;SDS011;11289;52.524;13.694;2023-12-07T05:29:23;22.13;;;14.98;;
22240;SDS011;11289;52.524;13.694;2023-12-07T05:31:49;25.88;;;16.75;;
22240;SDS011;11289;52.524;13.694;2023-12-07T05:34:18;25.92;;;15.80;;
22240;SDS011;11289;52.524;13.694;2023-12-07T05:36:44;28.15;;;16.70;;
22240;SDS011;11289;52.524;13.694;2023-12-07T05:39:11;25.85;;;16.02;;
22240;SDS011;11289;52.524;13.694;2023-12-07T05:41:38;28.70;;;16.40;;
22240;SDS011;11289;52.524;13.694;2023-12-07T05:44:04;31.60;;;19.20;;
22240;SDS011;11289;52.524;13.694;2023-12-07T05:46:31;28.63;;;18.42;;
22240;SDS011;11289;52.524;13.694;2023-12-07T05:48:58;27.50;;;17.52;;
22240;SDS011;11289;52.524;13.694;2023-12-07T05:51:24;31.80;;;19.88;;
22240;SDS011;11289;52.524;13.694;2023-12-07T05:53:50;29.50;;;18.80;;
22240;SDS011;11289;52.524;13.694;2023-12-07T05:56:19;31.00;;;19.52;;
22240;SDS011;11289;52.524;13.694;2023-12-07T05:58:46;30.67;;;18.42;;
22240;SDS011;11289;52.524;13.694;2023-12-07T06:01:16;28.85;;;18.40;;
22240;SDS011;11289;52.524;13.694;2023-12-07T06:03:43;26.65;;;18.23;;
22240;SDS011;11289;52.524;13.694;2023-12-07T06:06:10;29.73;;;18.88;;
22240;SDS011;11289;52.524;13.694;2023-12-07T06:08:39;28.75;;;19.65;;
22240;SDS011;11289;52.524;13.694;2023-12-07T06:11:05;27.52;;;18.70;;
22240;SDS011;11289;52.524;13.694;2023-12-07T06:13:31;28.17;;;18.38;;
22240;SDS011;11289;52.524;13.694;2023-12-07T06:15:58;29.95;;;18.80;;
22240;SDS011;11289;52.524;13.694;2023-12-07T06:18:24;27.90;;;18.05;;
22240;SDS011;11289;52.524;13.694;2023-12-07T06:20:50;27.75;;;17.48;;
22240;SDS011;11289;52.524;13.694;2023-12-07T06:23:16;30.27;;;18.27;;
22240;SDS011;11289;52.524;13.694;2023-12-07T06:25:42;29.42;;;19.42;;
22240;SDS011;11289;52.524;13.694;2023-12-07T06:28:08;30.92;;;18.20;;
22240;SDS011;11289;52.524;13.694;2023-12-07T06:30:34;28.52;;;18.13;;
22240;SDS011;11289;52.524;13.694;2023-12-07T06:33:00;28.80;;;18.65;;
22240;SDS011;11289;52.524;13.694;2023-12-07T06:35:26;31.00;;;19.88;;
22240;SDS011;11289;52.524;13.694;2023-12-07T06:37:52;29.98;;;18.17;;
22240;SDS011;11289;52.524;13.694;2023-12-07T06:40:18;27.48;;;18.52;;
22240;SDS011;11289;52.524;13.694;2023-12-07T06:42:45;30.10;;;17.58;;
22240;SDS011;11289;52.524;13.694;2023-12-07T06:45:11;30.90;;;18.55;;
22240;SDS011;11289;52.524;13.694;2023-12-07T06:47:40;27.13;;;18.30;;
22240;SDS011;11289;52.524;13.694;2023-12-07T06:50:08;26.15;;;16.88;;
22240;SDS011;11289;52.524;13.694;2023-12-07T06:52:37;28.50;;;17.95;;
22240;SDS011;11289;52.524;13.694;2023-12-07T06:55:03;30.80;;;18.92;;
22240;SDS011;11289;52.524;13.694;2023-12-07T06:57:30;29.52;;;18.52;;
22240;SDS011;11289;52.524;13.694;2023-12-07T06:59:56;31.80;;;18.35;;
22240;SDS011;11289;52.524;13.694;2023-12-07T07:02:22;27.25;;;17.15;;
22240;SDS011;11289;52.524;13.694;2023-12-07T07:04:48;29.35;;;18.73;;
22240;SDS011;11289;52.524;13.694;2023-12-07T07:07:15;32.03;;;19.05;;
22240;SDS011;11289;52.524;13.694;2023-12-07T07:09:41;33.53;;;17.60;;
22240;SDS011;11289;52.524;13.694;2023-12-07T07:12:07;28.23;;;16.35;;
22240;SDS011;11289;52.524;13.694;2023-12-07T07:14:34;26.55;;;17.33;;
22240;SDS011;11289;52.524;13.694;2023-12-07T07:17:00;28.90;;;17.20;;
22240;SDS011;11289;52.524;13.694;2023-12-07T07:19:25;30.65;;;18.73;;
22240;SDS011;11289;52.524;13.694;2023-12-07T07:21:51;29.02;;;17.92;;
22240;SDS011;11289;52.524;13.694;2023-12-07T07:24:17;27.75;;;16.77;;
22240;SDS011;11289;52.524;13.694;2023-12-07T07:26:43;30.25;;;18.10;;
22240;SDS011;11289;52.524;13.694;2023-12-07T07:29:09;30.70;;;17.83;;
22240;SDS011;11289;52.524;13.694;2023-12-07T07:31:35;29.70;;;16.80;;
22240;SDS011;11289;52.524;13.694;2023-12-07T07:34:02;30.50;;;18.33;;
22240;SDS011;11289;52.524;13.694;2023-12-07T07:36:28;31.90;;;17.35;;
22240;SDS011;11289;52.524;13.694;2023-12-07T07:38:54;31.08;;;19.70;;
22240;SDS011;11289;52.524;13.694;2023-12-07T07:41:21;32.45;;;18.73;;
22240;SDS011;11289;52.524;13.694;2023-12-07T07:43:48;34.33;;;20.27;;
22240;SDS011;11289;52.524;13.694;2023-12-07T07:46:16;36.80;;;21.77;;
22240;SDS011;11289;52.524;13.694;2023-12-07T07:48:42;38.78;;;23.23;;
22240;SDS011;11289;52.524;13.694;2023-12-07T07:51:08;37.17;;;23.08;;
22240;SDS011;11289;52.524;13.694;2023-12-07T07:53:34;41.03;;;23.58;;
22240;SDS011;11289;52.524;13.694;2023-12-07T07:55:59;36.92;;;21.13;;
22240;SDS011;11289;52.524;13.694;2023-12-07T07:58:25;33.88;;;19.67;;
22240;SDS011;11289;52.524;13.694;2023-12-07T08:00:51;32.45;;;19.88;;
22240;SDS011;11289;52.524;13.694;2023-12-07T08:03:17;36.13;;;20.95;;
22240;SDS011;11289;52.524;13.694;2023-12-07T08:05:43;36.95;;;21.45;;
22240;SDS011;11289;52.524;13.694;2023-12-07T08:08:10;34.05;;;20.83;;
22240;SDS011;11289;52.524;13.694;2023-12-07T08:10:36;37.47;;;22.25;;
22240;SDS011;11289;52.524;13.694;2023-12-07T08:13:02;36.05;;;19.50;;
22240;SDS011;11289;52.524;13.694;2023-12-07T08:15:27;36.53;;;21.00;;
22240;SDS011;11289;52.524;13.694;2023-12-07T08:17:53;34.92;;;19.90;;
22240;SDS011;11289;52.524;13.694;2023-12-07T08:20:21;32.53;;;20.38;;
22240;SDS011;11289;52.524;13.694;2023-12-07T08:22:47;35.58;;;20.92;;
22240;SDS011;11289;52.524;13.694;2023-12-07T08:25:13;34.40;;;20.35;;
22240;SDS011;11289;52.524;13.694;2023-12-07T08:27:39;32.05;;;19.23;;
22240;SDS011;11289;52.524;13.694;2023-12-07T08:30:05;32.28;;;19.30;;
22240;SDS011;11289;52.524;13.694;2023-12-07T08:32:31;36.85;;;20.65;;
22240;SDS011;11289;52.524;13.694;2023-12-07T08:34:57;31.20;;;20.08;;
22240;SDS011;11289;52.524;13.694;2023-12-07T08:37:23;34.35;;;19.27;;
22240;SDS011;11289;52.524;13.694;2023-12-07T08:39:49;37.13;;;22.08;;
22240;SDS011;11289;52.524;13.694;2023-12-07T08:42:15;35.03;;;20.75;;
22240;SDS011;11289;52.524;13.694;2023-12-07T08:44:42;38.20;;;20.65;;
22240;SDS011;11289;52.524;13.694;2023-12-07T08:47:09;36.83;;;21.95;;
22240;SDS011;11289;52.524;13.694;2023-12-07T08:49:35;42.20;;;22.58;;
22240;SDS011;11289;52.524;13.694;2023-12-07T08:52:01;42.05;;;22.13;;
22240;SDS011;11289;52.524;13.694;2023-12-07T08:54:27;37.92;;;22.30;;
22240;SDS011;11289;52.524;13.694;2023-12-07T08:56:54;42.22;;;22.23;;
22240;SDS011;11289;52.524;13.694;2023-12-07T08:59:20;46.97;;;23.13;;
22240;SDS011;11289;52.524;13.694;2023-12-07T09:01:46;38.08;;;21.48;;
22240;SDS011;11289;52.524;13.694;2023-12-07T09:04:12;41.72;;;22.70;;
22240;SDS011;11289;52.524;13.694;2023-12-07T09:06:38;34.58;;;21.02;;
22240;SDS011;11289;52.524;13.694;2023-12-07T09:09:04;40.60;;;21.92;;
22240;SDS011;11289;52.524;13.694;2023-12-07T09:11:30;39.30;;;21.30;;
22240;SDS011;11289;52.524;13.694;2023-12-07T09:13:57;38.15;;;21.48;;
22240;SDS011;11289;52.524;13.694;2023-12-07T09:16:23;44.17;;;22.50;;
22240;SDS011;11289;52.524;13.694;2023-12-07T09:18:49;41.78;;;22.15;;
22240;SDS011;11289;52.524;13.694;2023-12-07T09:21:15;44.78;;;23.35;;
22240;SDS011;11289;52.524;13.694;2023-12-07T09:23:41;48.33;;;24.92;;
22240;SDS011;11289;52.524;13.694;2023-12-07T09:26:07;44.88;;;22.83;;
22240;SDS011;11289;52.524;13.694;2023-12-07T09:28:33;46.35;;;23.95;;
22240;SDS011;11289;52.524;13.694;2023-12-07T09:30:59;46.90;;;24.52;;
22240;SDS011;11289;52.524;13.694;2023-12-07T09:33:26;46.95;;;24.67;;
22240;SDS011;11289;52.524;13.694;2023-12-07T09:35:51;47.85;;;25.77;;
22240;SDS011;11289;52.524;13.694;2023-12-07T09:38:17;46.15;;;23.85;;
22240;SDS011;11289;52.524;13.694;2023-12-07T09:40:43;51.75;;;23.67;;
22240;SDS011;11289;52.524;13.694;2023-12-07T09:43:11;49.95;;;24.23;;
22240;SDS011;11289;52.524;13.694;2023-12-07T09:45:38;43.20;;;22.60;;
22240;SDS011;11289;52.524;13.694;2023-12-07T09:48:04;49.15;;;24.52;;
22240;SDS011;11289;52.524;13.694;2023-12-07T09:50:30;43.95;;;23.80;;
22240;SDS011;11289;52.524;13.694;2023-12-07T09:52:57;46.67;;;23.60;;
22240;SDS011;11289;52.524;13.694;2023-12-07T09:55:24;44.17;;;22.48;;
22240;SDS011;11289;52.524;13.694;2023-12-07T09:57:53;43.70;;;23.50;;
22240;SDS011;11289;52.524;13.694;2023-12-07T10:00:22;47.28;;;23.98;;
22240;SDS011;11289;52.524;13.694;2023-12-07T10:02:48;39.83;;;24.27;;
22240;SDS011;11289;52.524;13.694;2023-12-07T10:05:16;48.75;;;24.50;;
22240;SDS011;11289;52.524;13.694;2023-12-07T10:07:44;47.97;;;23.42;;
22240;SDS011;11289;52.524;13.694;2023-12-07T10:10:13;44.63;;;23.42;;
22240;SDS011;11289;52.524;13.694;2023-12-07T10:12:47;52.65;;;24.55;;
22240;SDS011;11289;52.524;13.694;2023-12-07T10:15:21;44.55;;;23.15;;
22240;SDS011;11289;52.524;13.694;2023-12-07T10:20:19;43.67;;;23.42;;
22240;SDS011;11289;52.524;13.694;2023-12-07T10:25:32;43.08;;;23.33;;
22240;SDS011;11289;52.524;13.694;2023-12-07T10:27:59;44.80;;;23.20;;
22240;SDS011;11289;52.524;13.694;2023-12-07T10:30:26;45.08;;;22.98;;
22240;SDS011;11289;52.524;13.694;2023-12-07T10:32:52;48.20;;;23.92;;
22240;SDS011;11289;52.524;13.694;2023-12-07T10:35:19;45.83;;;23.00;;
22240;SDS011;11289;52.524;13.694;2023-12-07T10:37:46;46.42;;;23.63;;
22240;SDS011;11289;52.524;13.694;2023-12-07T10:40:15;41.50;;;23.20;;
22240;SDS011;11289;52.524;13.694;2023-12-07T10:42:41;47.47;;;25.05;;
22240;SDS011;11289;52.524;13.694;2023-12-07T10:45:09;44.10;;;24.02;;
22240;SDS011;11289;52.524;13.694;2023-12-07T10:47:40;48.28;;;25.17;;
22240;SDS011;11289;52.524;13.694;2023-12-07T10:50:09;44.17;;;25.35;;
22240;SDS011;11289;52.524;13.694;2023-12-07T10:52:47;45.42;;;24.13;;
22240;SDS011;11289;52.524;13.694;2023-12-07T10:55:21;46.60;;;23.92;;
22240;SDS011;11289;52.524;13.694;2023-12-07T10:57:55;44.63;;;23.23;;
22240;SDS011;11289;52.524;13.694;2023-12-07T11:00:21;43.45;;;23.25;;
22240;SDS011;11289;52.524;13.694;2023-12-07T11:02:53;49.33;;;24.63;;
22240;SDS011;11289;52.524;13.694;2023-12-07T11:05:19;49.13;;;24.92;;
22240;SDS011;11289;52.524;13.694;2023-12-07T11:11:04;41.17;;;23.05;;
22240;SDS011;11289;52.524;13.694;2023-12-07T11:13:29;39.30;;;23.20;;
22240;SDS011;11289;52.524;13.694;2023-12-07T11:15:57;46.08;;;23.10;;
22240;SDS011;11289;52.524;13.694;2023-12-07T11:18:27;47.15;;;25.52;;
22240;SDS011;11289;52.524;13.694;2023-12-07T11:20:54;45.20;;;23.90;;
22240;SDS011;11289;52.524;13.694;2023-12-07T11:23:21;45.70;;;25.05;;
22240;SDS011;11289;52.524;13.694;2023-12-07T11:25:47;40.33;;;22.40;;
22240;SDS011;11289;52.524;13.694;2023-12-07T11:28:16;44.75;;;23.92;;
22240;SDS011;11289;52.524;13.694;2023-12-07T11:30:44;46.40;;;23.63;;
22240;SDS011;11289;52.524;13.694;2023-12-07T11:33:11;44.60;;;24.55;;
22240;SDS011;11289;52.524;13.694;2023-12-07T11:38:27;40.30;;;21.75;;
22240;SDS011;11289;52.524;13.694;2023-12-07T11:40:54;39.90;;;21.45;;
22240;SDS011;11289;52.524;13.694;2023-12-07T11:46:01;45.15;;;22.20;;
22240;SDS011;11289;52.524;13.694;2023-12-07T11:48:27;40.80;;;22.38;;
22240;SDS011;11289;52.524;13.694;2023-12-07T11:50:57;40.20;;;21.63;;
22240;SDS011;11289;52.524;13.694;2023-12-07T11:53:24;42.33;;;22.35;;
22240;SDS011;11289;52.524;13.694;2023-12-07T11:55:56;39.72;;;22.60;;
22240;SDS011;11289;52.524;13.694;2023-12-07T11:58:24;46.55;;;22.70;;
22240;SDS011;11289;52.524;13.694;2023-12-07T12:00:51;36.25;;;21.23;;
22240;SDS011;11289;52.524;13.694;2023-12-07T12:03:17;45.58;;;23.33;;
22240;SDS011;11289;52.524;13.694;2023-12-07T12:05:43;37.60;;;21.58;;
22240;SDS011;11289;52.524;13.694;2023-12-07T12:08:09;34.92;;;20.13;;
22240;SDS011;11289;52.524;13.694;2023-12-07T12:10:35;41.45;;;23.15;;
22240;SDS011;11289;52.524;13.694;2023-12-07T12:13:02;34.20;;;19.67;;
22240;SDS011;11289;52.524;13.694;2023-12-07T12:15:29;43.33;;;22.20;;
22240;SDS011;11289;52.524;13.694;2023-12-07T12:17:58;39.70;;;21.17;;
22240;SDS011;11289;52.524;13.694;2023-12-07T12:20:25;35.92;;;19.92;;
22240;SDS011;11289;52.524;13.694;2023-12-07T12:22:52;41.10;;;19.58;;
22240;SDS011;11289;52.524;13.694;2023-12-07T12:25:25;35.25;;;19.42;;
22240;SDS011;11289;52.524;13.694;2023-12-07T12:27:54;39.80;;;19.58;;
22240;SDS011;11289;52.524;13.694;2023-12-07T12:30:22;40.05;;;20.60;;
22240;SDS011;11289;52.524;13.694;2023-12-07T12:32:48;42.55;;;20.60;;
22240;SDS011;11289;52.524;13.694;2023-12-07T12:35:16;35.35;;;18.38;;
22240;SDS011;11289;52.524;13.694;2023-12-07T12:37:43;35.95;;;19.17;;
22240;SDS011;11289;52.524;13.694;2023-12-07T12:40:10;34.70;;;18.98;;
22240;SDS011;11289;52.524;13.694;2023-12-07T12:42:37;39.28;;;21.05;;
22240;SDS011;11289;52.524;13.694;2023-12-07T12:45:04;39.95;;;21.08;;
22240;SDS011;11289;52.524;13.694;2023-12-07T12:47:33;38.83;;;20.40;;
22240;SDS011;11289;52.524;13.694;2023-12-07T12:50:01;42.42;;;20.45;;
22240;SDS011;11289;52.524;13.694;2023-12-07T12:52:30;40.53;;;22.00;;
22240;SDS011;11289;52.524;13.694;2023-12-07T12:54:56;38.88;;;20.35;;
22240;SDS011;11289;52.524;13.694;2023-12-07T12:57:23;42.75;;;21.88;;
22240;SDS011;11289;52.524;13.694;2023-12-07T12:59:52;40.42;;;20.05;;
22240;SDS011;11289;52.524;13.694;2023-12-07T13:02:19;38.13;;;20.55;;
22240;SDS011;11289;52.524;13.694;2023-12-07T13:04:45;42.95;;;20.50;;
22240;SDS011;11289;52.524;13.694;2023-12-07T13:07:12;41.45;;;21.83;;
22240;SDS011;11289;52.524;13.694;2023-12-07T13:09:38;37.92;;;20.02;;
22240;SDS011;11289;52.524;13.694;2023-12-07T13:12:05;44.10;;;22.52;;
22240;SDS011;11289;52.524;13.694;2023-12-07T13:14:34;42.97;;;21.17;;
22240;SDS011;11289;52.524;13.694;2023-12-07T13:17:01;42.67;;;23.60;;
22240;SDS011;11289;52.524;13.694;2023-12-07T13:19:27;44.35;;;22.25;;
22240;SDS011;11289;52.524;13.694;2023-12-07T13:21:53;46.30;;;23.17;;
22240;SDS011;11289;52.524;13.694;2023-12-07T13:24:19;41.88;;;23.20;;
22240;SDS011;11289;52.524;13.694;2023-12-07T13:26:45;43.58;;;24.42;;
22240;SDS011;11289;52.524;13.694;2023-12-07T13:29:13;43.78;;;23.85;;
22240;SDS011;11289;52.524;13.694;2023-12-07T13:31:39;45.30;;;24.65;;
22240;SDS011;11289;52.524;13.694;2023-12-07T13:34:05;45.90;;;23.60;;
22240;SDS011;11289;52.524;13.694;2023-12-07T13:36:31;43.97;;;24.67;;
22240;SDS011;11289;52.524;13.694;2023-12-07T13:38:59;42.38;;;23.05;;
22240;SDS011;11289;52.524;13.694;2023-12-07T13:41:28;38.85;;;20.77;;
22240;SDS011;11289;52.524;13.694;2023-12-07T13:43:54;38.00;;;22.88;;
22240;SDS011;11289;52.524;13.694;2023-12-07T13:46:20;39.47;;;22.20;;
22240;SDS011;11289;52.524;13.694;2023-12-07T13:48:46;43.70;;;23.50;;
22240;SDS011;11289;52.524;13.694;2023-12-07T13:51:12;46.78;;;24.85;;
22240;SDS011;11289;52.524;13.694;2023-12-07T13:53:38;42.70;;;23.52;;
22240;SDS011;11289;52.524;13.694;2023-12-07T13:56:05;45.33;;;23.95;;
22240;SDS011;11289;52.524;13.694;2023-12-07T13:58:33;46.63;;;24.77;;
22240;SDS011;11289;52.524;13.694;2023-12-07T14:01:00;47.60;;;25.60;;
22240;SDS011;11289;52.524;13.694;2023-12-07T14:03:27;45.15;;;24.27;;
22240;SDS011;11289;52.524;13.694;2023-12-07T14:05:53;41.33;;;22.92;;
22240;SDS011;11289;52.524;13.694;2023-12-07T14:08:19;46.47;;;23.58;;
22240;SDS011;11289;52.524;13.694;2023-12-07T14:10:45;43.22;;;22.27;;
22240;SDS011;11289;52.524;13.694;2023-12-07T14:13:11;44.13;;;22.40;;
22240;SDS011;11289;52.524;13.694;2023-12-07T14:15:37;48.67;;;24.65;;
22240;SDS011;11289;52.524;13.694;2023-12-07T14:18:02;46.67;;;22.73;;
22240;SDS011;11289;52.524;13.694;2023-12-07T14:20:29;45.65;;;22.83;;